Paracuellos de Jarama, Spain
Current Conditions -  °F | °C
As of 9:30 AM on Thursday 18 Dec 2014 (Local Time) from LEMD Reporting Station
Clear Clear  
Wind Chill: 30°   Ceiling: Unl
Heat Index: 34°   Visibility: 5mi
Dew Point: 34°   Wind: 5mph
Humidity: 100%   Direction: 330°NNW
Pressure: 30.39"   Gusts: NA
Location:  40.5°N, 3.53°W
Report Text: LEMD 180830Z 33004KT 8000 NSC 01/01 Q1029 NOSIG
Loading
Personal Weather Stations






























Interactive Weather Map New forecast layout! Learn more

10-Day Weather Forecast

Advertisements
Track Severe Weather on mobile